Terminal Aerodrome Forecast
Issued by NWS Missoula, MT

Home | Current Version | Previous Version | Text Only | Print | Product List | Glossary On
Versions: 1 2 3 4 5 6 7 8 9 10 11 12 13 14 15 16 17 18 19 20 21 22 23 24 25
692
FTUS45 KMSO 211507 AAB
TAFMSO
TAF AMD
KMSO 211507Z 2115/2212 00000KT 1/4SM FG VV002
     FM211700 00000KT 2SM BR OVC005
      TEMPO 2117/2118 1/2SM FZFG BKN003 BKN050
     FM211800 13005KT 6SM HZ SCT010 BKN030
     FM220000 VRB05KT P6SM -RA BCFG SCT015 OVC030=

USA.gov is the U.S. government's official web portal to all federal, state and local government web resources and services.